createdAt,value
2018-12-24T00:01:16.156Z,41.90
2018-12-24T00:04:20.770Z,42.50
2018-12-24T00:07:25.921Z,42.30
2018-12-24T00:10:30.617Z,42.40
2018-12-24T00:13:35.225Z,42.30
2018-12-24T00:16:40.468Z,42.50
2018-12-24T00:19:45.772Z,43.00
2018-12-24T00:22:51.077Z,42.30
2018-12-24T00:25:56.248Z,42.40
2018-12-24T00:29:00.878Z,42.20
2018-12-24T00:32:05.483Z,42.30
2018-12-24T00:35:43.308Z,42.20
2018-12-24T00:38:51.830Z,42.10
2018-12-24T00:41:57.503Z,42.20
2018-12-24T00:45:03.119Z,42.10
2018-12-24T00:48:09.800Z,42.10
2018-12-24T00:51:15.443Z,42.10
2018-12-24T00:54:21.322Z,42.00
2018-12-24T00:57:26.951Z,42.10
2018-12-24T01:00:32.623Z,42.20
2018-12-24T01:03:38.254Z,42.10
2018-12-24T01:06:43.934Z,42.00
2018-12-24T01:09:49.585Z,42.10
2018-12-24T01:12:55.239Z,42.00
2018-12-24T01:16:00.866Z,41.80
2018-12-24T01:19:06.542Z,41.80
2018-12-24T01:22:12.304Z,42.20
2018-12-24T01:25:17.851Z,42.20
2018-12-24T01:33:05.221Z,42.50
2018-12-24T01:36:10.868Z,42.60
2018-12-24T01:39:16.547Z,42.60
2018-12-24T01:42:22.163Z,42.70
2018-12-24T01:45:27.893Z,42.70
2018-12-24T01:48:33.566Z,42.70
2018-12-24T01:51:39.202Z,42.60
2018-12-24T01:54:45.008Z,42.50
2018-12-24T01:57:52.334Z,42.60
2018-12-24T02:00:58.032Z,42.70
2018-12-24T02:04:03.687Z,42.70
2018-12-24T02:07:09.347Z,42.70
2018-12-24T02:10:15.087Z,42.70
2018-12-24T02:13:20.742Z,42.70
2018-12-24T02:16:26.430Z,42.70
2018-12-24T02:19:32.230Z,42.70
2018-12-24T02:22:38.160Z,43.60
2018-12-24T02:25:43.845Z,42.70
2018-12-24T02:28:49.654Z,42.90
2018-12-24T02:31:55.242Z,42.80
2018-12-24T02:35:01.291Z,42.70
2018-12-24T02:38:07.090Z,42.80
2018-12-24T02:41:12.785Z,42.80
2018-12-24T02:44:18.596Z,42.60
2018-12-24T02:47:24.294Z,43.10
2018-12-24T02:50:30.020Z,42.60
2018-12-24T02:53:35.670Z,42.60
2018-12-24T02:56:41.318Z,42.60
2018-12-24T02:59:47.081Z,42.60
2018-12-24T03:02:52.860Z,42.50
2018-12-24T03:05:58.447Z,42.60
2018-12-24T03:09:04.591Z,42.50
2018-12-24T03:12:10.415Z,42.50
2018-12-24T03:15:16.023Z,42.30
2018-12-24T03:18:21.699Z,42.30
2018-12-24T03:21:27.350Z,42.30
2018-12-24T03:24:32.999Z,42.30
2018-12-24T03:27:38.664Z,42.20
2018-12-24T03:30:44.319Z,42.00
2018-12-24T03:33:49.942Z,42.00
2018-12-24T03:36:55.610Z,42.00
2018-12-24T03:40:01.183Z,42.00
2018-12-24T03:43:12.474Z,42.70
2018-12-24T03:46:14.425Z,42.00
2018-12-24T03:49:20.147Z,42.00
2018-12-24T03:52:25.823Z,41.90
2018-12-24T03:55:31.446Z,41.90
2018-12-24T03:58:37.118Z,42.00
2018-12-24T04:01:42.778Z,41.90
2018-12-24T04:04:50.012Z,41.90
2018-12-24T04:07:55.659Z,42.00
2018-12-24T04:11:01.295Z,41.60
2018-12-24T04:14:06.967Z,41.60
2018-12-24T04:17:12.599Z,41.60
2018-12-24T04:20:18.278Z,41.50
2018-12-24T04:23:23.910Z,41.40
2018-12-24T04:26:31.251Z,41.40
2018-12-24T04:29:36.872Z,41.50
2018-12-24T04:32:44.224Z,41.50
2018-12-24T04:35:49.948Z,41.50
2018-12-24T04:38:55.583Z,41.50
2018-12-24T04:42:01.194Z,41.40
2018-12-24T04:45:06.881Z,41.40
2018-12-24T04:48:12.527Z,41.40
2018-12-24T04:51:19.884Z,41.40
2018-12-24T04:54:25.574Z,41.30
2018-12-24T04:57:31.230Z,41.20
2018-12-24T05:00:36.954Z,41.30
2018-12-24T05:03:42.619Z,41.40
2018-12-24T05:06:48.292Z,41.20
2018-12-24T05:09:53.922Z,41.20
2018-12-24T05:12:59.614Z,41.20
2018-12-24T05:16:05.243Z,41.40
2018-12-24T05:19:11.003Z,41.40
2018-12-24T05:22:16.586Z,40.30
2018-12-24T05:25:22.203Z,40.30
2018-12-24T05:28:27.898Z,45.00
2018-12-24T05:31:33.342Z,42.00
2018-12-24T05:34:38.969Z,42.50
2018-12-24T05:37:44.588Z,42.90
2018-12-24T05:40:50.434Z,42.80
2018-12-24T05:43:55.899Z,43.20
2018-12-24T05:47:01.492Z,43.80
2018-12-24T05:50:06.920Z,43.20
2018-12-24T05:53:12.672Z,42.80
2018-12-24T05:56:18.147Z,42.50
2018-12-24T05:59:23.655Z,41.90
2018-12-24T06:02:29.166Z,41.70
2018-12-24T06:05:34.646Z,41.40
2018-12-24T06:08:40.205Z,41.50
2018-12-24T06:11:45.679Z,41.40
2018-12-24T06:14:51.310Z,41.40
2018-12-24T06:17:57.766Z,41.70
2018-12-24T06:21:03.339Z,41.40
2018-12-24T06:24:08.782Z,39.40
2018-12-24T06:27:14.262Z,39.60
2018-12-24T06:30:19.702Z,40.20
2018-12-24T06:33:25.180Z,40.20
2018-12-24T06:36:30.636Z,40.00
2018-12-24T06:39:36.098Z,39.90
2018-12-24T06:42:43.583Z,40.20
2018-12-24T06:45:49.030Z,40.10
2018-12-24T06:48:54.494Z,39.70
2018-12-24T06:52:00.020Z,39.90
2018-12-24T06:55:05.506Z,40.10
2018-12-24T06:58:10.971Z,39.90
2018-12-24T07:01:16.434Z,39.60
2018-12-24T07:04:21.888Z,39.70
2018-12-24T07:07:27.355Z,39.40
2018-12-24T07:10:32.929Z,39.60
2018-12-24T07:13:38.383Z,39.50
2018-12-24T07:16:43.836Z,39.10
2018-12-24T07:19:49.278Z,38.60
2018-12-24T07:22:54.735Z,38.70
2018-12-24T07:26:00.182Z,38.20
2018-12-24T07:29:05.638Z,38.40
2018-12-24T07:32:11.095Z,38.20
2018-12-24T07:35:16.542Z,38.20
2018-12-24T07:38:22.027Z,38.00
2018-12-24T07:41:27.475Z,38.00
2018-12-24T07:44:32.931Z,38.00
2018-12-24T07:47:38.366Z,37.70
2018-12-24T07:50:43.811Z,37.50
2018-12-24T07:53:49.372Z,37.70
2018-12-24T07:56:54.819Z,37.60
2018-12-24T08:00:00.266Z,37.30
2018-12-24T08:03:05.714Z,37.70
2018-12-24T08:06:11.166Z,37.50
2018-12-24T08:09:16.643Z,37.30
2018-12-24T08:12:22.094Z,36.60
2018-12-24T08:15:27.658Z,36.10
2018-12-24T08:18:33.112Z,35.60
2018-12-24T08:21:38.614Z,35.60
2018-12-24T08:24:44.063Z,35.50
2018-12-24T08:27:49.576Z,35.50
2018-12-24T08:30:55.023Z,35.50
2018-12-24T08:34:00.524Z,35.40
2018-12-24T08:37:05.967Z,35.40
2018-12-24T08:40:11.781Z,35.40
2018-12-24T08:43:17.227Z,35.30
2018-12-24T08:46:22.703Z,35.10
2018-12-24T08:49:28.146Z,35.20
2018-12-24T08:52:33.606Z,35.80
2018-12-24T08:55:39.052Z,36.20
2018-12-24T08:58:44.493Z,36.40
2018-12-24T09:01:49.966Z,36.70
2018-12-24T09:04:55.412Z,36.80
2018-12-24T09:08:00.903Z,37.00
2018-12-24T09:11:06.356Z,37.10
2018-12-24T09:14:11.826Z,37.00
2018-12-24T09:17:17.281Z,37.10
2018-12-24T09:20:22.715Z,36.90
2018-12-24T09:23:28.202Z,36.10
2018-12-24T09:26:33.792Z,35.60
2018-12-24T09:29:39.330Z,35.60
2018-12-24T09:32:44.779Z,35.40
2018-12-24T09:35:50.262Z,34.70
2018-12-24T09:38:55.714Z,35.00
2018-12-24T09:42:01.166Z,34.60
2018-12-24T09:45:06.726Z,34.50
2018-12-24T09:48:12.178Z,34.60
2018-12-24T09:51:17.650Z,34.80
2018-12-24T09:54:23.310Z,35.30
2018-12-24T09:57:28.796Z,34.70
2018-12-24T10:00:34.234Z,35.00
2018-12-24T10:03:44.090Z,35.20
2018-12-24T10:06:49.946Z,35.30
2018-12-24T10:09:55.835Z,35.20
2018-12-24T10:13:01.490Z,35.20
2018-12-24T10:16:07.140Z,35.10
2018-12-24T10:19:12.794Z,34.90
2018-12-24T10:22:18.520Z,34.60
2018-12-24T10:25:24.206Z,34.80
2018-12-24T10:28:29.846Z,34.70
2018-12-24T10:31:35.515Z,35.20
2018-12-24T10:34:41.387Z,35.80
2018-12-24T10:37:46.990Z,36.30
2018-12-24T10:41:04.151Z,36.60
2018-12-24T10:44:09.773Z,37.20
2018-12-24T10:47:15.479Z,37.70
2018-12-24T10:50:21.099Z,37.90
2018-12-24T10:53:28.583Z,38.10
2018-12-24T10:56:34.253Z,38.30
2018-12-24T10:59:39.874Z,38.40
2018-12-24T11:02:45.528Z,38.40
2018-12-24T11:05:51.206Z,38.60
2018-12-24T11:08:56.959Z,38.50
2018-12-24T11:12:03.607Z,38.60
2018-12-24T11:15:11.415Z,38.80
2018-12-24T11:18:17.079Z,39.20
2018-12-24T11:21:22.747Z,39.60
2018-12-24T11:24:28.401Z,39.00
2018-12-24T11:27:34.051Z,39.60
2018-12-24T11:30:39.675Z,39.50
2018-12-24T11:33:45.331Z,39.50
2018-12-24T11:36:51.002Z,39.50
2018-12-24T11:39:56.662Z,39.50
2018-12-24T11:43:02.356Z,39.40
2018-12-24T11:46:07.939Z,37.60
2018-12-24T11:49:13.595Z,38.30
2018-12-24T11:52:19.256Z,38.80
2018-12-24T11:55:24.924Z,39.20
2018-12-24T11:58:30.575Z,39.40
2018-12-24T12:01:36.206Z,39.20
2018-12-24T12:04:41.896Z,39.30
2018-12-24T12:07:47.534Z,39.40
2018-12-24T12:15:08.602Z,39.50
2018-12-24T12:18:14.235Z,39.50
2018-12-24T12:21:19.994Z,39.40
2018-12-24T12:24:25.641Z,39.40
2018-12-24T12:27:31.319Z,39.40
2018-12-24T12:30:36.947Z,39.30
2018-12-24T12:33:44.532Z,39.40
2018-12-24T12:36:50.206Z,39.70
2018-12-24T12:39:56.031Z,39.50
2018-12-24T12:43:01.734Z,39.50
2018-12-24T12:46:07.353Z,39.40
2018-12-24T12:49:13.013Z,39.40
2018-12-24T12:52:18.644Z,39.40
2018-12-24T12:55:24.311Z,39.40
2018-12-24T12:58:29.995Z,39.40
2018-12-24T13:01:35.726Z,39.40
2018-12-24T13:04:41.411Z,39.40
2018-12-24T13:07:47.032Z,39.40
2018-12-24T13:10:52.643Z,39.50
2018-12-24T13:13:58.414Z,39.30
2018-12-24T13:17:04.083Z,39.40
2018-12-24T13:20:09.746Z,39.40
2018-12-24T13:23:15.367Z,39.20
2018-12-24T13:26:21.044Z,39.10
2018-12-24T13:29:26.701Z,39.20
2018-12-24T13:32:34.441Z,39.00
2018-12-24T13:35:40.146Z,39.30
2018-12-24T13:38:45.792Z,39.10
2018-12-24T13:41:51.548Z,39.10
2018-12-24T13:44:57.211Z,39.10
2018-12-24T13:48:03.870Z,39.20
2018-12-24T13:51:09.543Z,39.20
2018-12-24T13:54:15.294Z,39.20
2018-12-24T13:57:22.743Z,39.10
2018-12-24T14:00:28.446Z,39.10
2018-12-24T14:03:34.082Z,39.30
2018-12-24T14:06:39.726Z,39.20
2018-12-24T14:09:45.410Z,39.10
2018-12-24T14:12:51.039Z,39.00
2018-12-24T14:15:56.712Z,38.10
2018-12-24T14:19:02.468Z,38.20
2018-12-24T14:22:08.325Z,39.80
2018-12-24T14:25:13.975Z,38.00
2018-12-24T14:28:19.614Z,38.70
2018-12-24T14:31:25.386Z,38.60
2018-12-24T14:34:31.039Z,38.50
2018-12-24T14:37:36.791Z,38.50
2018-12-24T14:40:42.418Z,38.50
2018-12-24T14:43:48.096Z,38.40
2018-12-24T14:46:53.755Z,38.20
2018-12-24T14:49:59.400Z,38.10
2018-12-24T14:53:05.130Z,38.00
2018-12-24T14:56:10.808Z,38.00
2018-12-24T14:59:16.470Z,37.80
2018-12-24T15:02:22.198Z,37.70
2018-12-24T15:05:27.865Z,37.60
2018-12-24T15:08:34.655Z,37.60
2018-12-24T15:11:40.290Z,38.40
2018-12-24T15:14:46.075Z,37.60
2018-12-24T15:17:51.719Z,37.60
2018-12-24T15:20:57.599Z,37.40
2018-12-24T15:24:03.232Z,37.50
2018-12-24T15:27:08.906Z,37.30
2018-12-24T15:30:14.506Z,37.20
2018-12-24T15:33:20.214Z,37.20
2018-12-24T15:36:25.840Z,37.10
2018-12-24T15:39:31.472Z,37.10
2018-12-24T15:42:37.158Z,37.20
2018-12-24T15:45:42.786Z,37.10
2018-12-24T15:48:50.180Z,37.10
2018-12-24T15:51:55.920Z,37.20
2018-12-24T15:55:01.608Z,37.10
2018-12-24T15:58:07.243Z,37.20
2018-12-24T16:01:14.735Z,37.10
2018-12-24T16:04:20.518Z,37.20
2018-12-24T16:07:25.979Z,37.20
2018-12-24T16:10:31.559Z,37.30
2018-12-24T16:13:37.015Z,37.30
2018-12-24T16:16:50.784Z,37.20
2018-12-24T16:19:49.884Z,37.10
2018-12-24T16:22:55.331Z,37.00
2018-12-24T16:26:00.782Z,37.10
2018-12-24T16:29:06.243Z,37.10
2018-12-24T16:32:11.687Z,37.00
2018-12-24T16:35:17.139Z,37.00
2018-12-24T16:38:22.596Z,37.00
2018-12-24T16:41:28.083Z,37.00
2018-12-24T16:44:33.538Z,37.10
2018-12-24T16:47:38.998Z,37.20
2018-12-24T16:50:44.447Z,36.90
2018-12-24T16:53:49.899Z,36.80
2018-12-24T16:56:55.424Z,36.60
2018-12-24T17:00:00.873Z,36.40
2018-12-24T17:03:06.319Z,36.20
2018-12-24T17:06:11.766Z,36.10
2018-12-24T17:09:17.252Z,36.00
2018-12-24T17:12:22.707Z,36.00
2018-12-24T17:15:28.158Z,36.00
2018-12-24T17:18:33.618Z,35.80
2018-12-24T17:21:39.244Z,35.70
2018-12-24T17:24:44.758Z,35.70
2018-12-24T17:27:50.219Z,35.80
2018-12-24T17:30:55.791Z,35.80
2018-12-24T17:34:01.234Z,35.80
2018-12-24T17:37:06.683Z,35.70
2018-12-24T17:40:12.127Z,35.80
2018-12-24T17:43:17.582Z,35.80
2018-12-24T17:46:23.023Z,35.60
2018-12-24T17:49:28.478Z,35.60
2018-12-24T17:52:34.076Z,35.60
2018-12-24T17:55:39.587Z,35.50
2018-12-24T17:58:45.070Z,35.50
2018-12-24T18:01:50.614Z,35.70
2018-12-24T18:04:56.059Z,36.40
2018-12-24T18:08:01.514Z,35.60
2018-12-24T18:11:06.993Z,35.70
2018-12-24T18:14:12.452Z,35.60
2018-12-24T18:17:24.761Z,35.80
2018-12-24T18:20:25.008Z,35.70
2018-12-24T18:23:30.455Z,35.80
2018-12-24T18:26:35.939Z,35.70
2018-12-24T18:29:41.849Z,35.70
2018-12-24T18:32:47.303Z,35.90
2018-12-24T18:35:52.758Z,36.00
2018-12-24T18:38:58.210Z,36.30
2018-12-24T18:42:03.727Z,36.60
2018-12-24T18:45:09.179Z,37.00
2018-12-24T18:48:14.737Z,37.10
2018-12-24T18:51:20.174Z,37.20
2018-12-24T18:54:25.697Z,37.30
2018-12-24T18:57:31.136Z,37.30
2018-12-24T19:00:36.616Z,37.40
2018-12-24T19:03:42.070Z,38.10
2018-12-24T19:06:47.530Z,37.40
2018-12-24T19:09:53.298Z,37.50
2018-12-24T19:12:58.953Z,37.50
2018-12-24T19:16:04.434Z,37.40
2018-12-24T19:19:09.875Z,37.50
2018-12-24T19:22:15.362Z,37.60
2018-12-24T19:25:20.806Z,37.50
2018-12-24T19:28:26.290Z,37.30
2018-12-24T19:31:31.754Z,37.30
2018-12-24T19:34:37.529Z,37.20
2018-12-24T19:37:42.981Z,37.00
2018-12-24T19:40:48.730Z,37.70
2018-12-24T19:43:54.195Z,37.00
2018-12-24T19:46:59.795Z,37.00
2018-12-24T19:50:05.273Z,37.20
2018-12-24T19:53:10.751Z,37.00
2018-12-24T19:56:16.204Z,37.10
2018-12-24T19:59:21.702Z,37.20
2018-12-24T20:02:27.164Z,37.10
2018-12-24T20:05:32.642Z,37.10
2018-12-24T20:08:38.339Z,37.10
2018-12-24T20:11:43.850Z,37.00
2018-12-24T20:14:49.297Z,37.00
2018-12-24T20:17:58.342Z,37.00
2018-12-24T20:21:01.887Z,37.10
2018-12-24T20:24:07.509Z,36.90
2018-12-24T20:27:12.966Z,36.90
2018-12-24T20:30:18.411Z,36.90
2018-12-24T20:33:23.858Z,36.90
2018-12-24T20:36:29.317Z,36.90
2018-12-24T20:39:34.762Z,36.90
2018-12-24T20:42:40.213Z,36.80
2018-12-24T20:45:45.748Z,36.70
2018-12-24T20:48:52.524Z,36.80
2018-12-24T20:51:58.059Z,36.70
2018-12-24T20:55:03.509Z,36.50
2018-12-24T20:58:08.964Z,36.30
2018-12-24T21:01:14.419Z,36.20
2018-12-24T21:04:19.875Z,36.20
2018-12-24T21:07:25.327Z,36.00
2018-12-24T21:10:30.784Z,36.00
2018-12-24T21:13:36.443Z,36.00
2018-12-24T21:16:41.994Z,36.00
2018-12-24T21:19:47.443Z,36.00
2018-12-24T21:22:53.095Z,36.10
2018-12-24T21:26:00.215Z,35.80
2018-12-24T21:29:05.660Z,35.90
2018-12-24T21:32:11.159Z,35.30
2018-12-24T21:35:16.610Z,35.90
2018-12-24T21:38:22.066Z,35.80
2018-12-24T21:41:27.502Z,35.70
2018-12-24T21:44:32.954Z,35.70
2018-12-24T21:47:38.446Z,35.90
2018-12-24T21:50:43.901Z,35.80
2018-12-24T21:53:49.346Z,35.60
2018-12-24T21:56:54.793Z,35.70
2018-12-24T22:00:00.292Z,35.60
2018-12-24T22:03:05.818Z,35.70
2018-12-24T22:06:11.308Z,35.70
2018-12-24T22:09:16.924Z,35.60
2018-12-24T22:12:22.602Z,35.70
2018-12-24T22:15:29.959Z,35.70
2018-12-24T22:18:35.654Z,35.70
2018-12-24T22:21:41.373Z,35.60
2018-12-24T22:24:47.039Z,35.50
2018-12-24T22:27:52.839Z,35.60
2018-12-24T22:30:58.470Z,35.70
2018-12-24T22:34:04.166Z,35.60
2018-12-24T22:37:09.749Z,35.50
2018-12-24T22:40:15.546Z,36.40
2018-12-24T22:43:21.183Z,35.70
2018-12-24T22:46:26.845Z,35.80
2018-12-24T22:49:32.483Z,35.70
2018-12-24T22:52:38.207Z,35.80
2018-12-24T22:55:44.786Z,35.80
2018-12-24T22:58:50.488Z,35.90
2018-12-24T23:01:56.221Z,36.00
2018-12-24T23:05:02.186Z,35.90
2018-12-24T23:08:07.803Z,35.90
2018-12-24T23:11:13.607Z,36.00
2018-12-24T23:14:19.215Z,35.90
2018-12-24T23:17:25.255Z,36.00
2018-12-24T23:20:31.058Z,36.30
2018-12-24T23:23:37.042Z,36.10
2018-12-24T23:26:42.766Z,36.00
2018-12-24T23:29:48.662Z,36.30
2018-12-24T23:32:54.283Z,36.30
2018-12-24T23:36:01.007Z,36.40
2018-12-24T23:39:07.510Z,36.40
2018-12-24T23:42:13.283Z,36.40
2018-12-24T23:45:19.047Z,36.40
2018-12-24T23:48:24.814Z,36.40
2018-12-24T23:51:31.858Z,36.30
2018-12-24T23:54:37.552Z,36.40
2018-12-24T23:57:43.190Z,36.50
